Impacts METAR Board
IDs:

KMCO - Orlando Intl, FL, US

Updated at: 1200 UTC 15 Jul 2020
Potential Impact None Slight Moderate High
Time 15/00Z 15/01Z 15/02Z 15/03Z 15/04Z 15/05Z 15/06Z 15/07Z 15/08Z 15/09Z 15/10Z 15/11Z 15/12Z
Temp84 75 78 77 78 78 77 77 77 77 77 78 82
Dewpt72 66 71 72 73 74 75 74 75 75 75 75 76
Altim30.05 30.06 30.05 30.07 30.06 30.07 30.06 30.04 30.03 30.02 30.03 30.04 30.05
VIS10 7 10 10 10 10 10 10 10 10 10 10 10
CIG45 44 200 200 250 -- -- -- -- -- -- -- --
CoverBKNBKNBKNBKNBKNSCTSCTFEWFEWCLRFEWFEWFEW
FltCatVFRVFRVFRVFRVFRVFRVFRVFRVFRVFRVFRVFRVFR
WXTS-TSRA----------------------
WDir1001801500270330150022019021000
WSpd10 11 3 0 5 3 4 0 3 3 3 0 0
WGst-- 24 -- -- -- -- -- -- -- -- -- -- --
Raw hourly METARs
KMCO 142353Z 10010KT 10SM TS BKN045CB BKN130 BKN300 29/22 A3005 RMK AO2 PK WND 23026/2300 LTG DSNT E AND SE SLP175 OCNL LTGICCG E-SE TS E-SE MOV E TCU W-NW VCSH NE-SE T02890222 10344 20283 53018
KMCO 150053Z COR 18011G24KT 7SM R35L/4500VP6000FT -TSRA FEW009 BKN044CB BKN300 24/19 A3006 RMK AO2 PK WND 07049/0034 WSHFT 0035 LTG DSNT N AND NW RAB18 SLP176 CONS LTGCCICCG OHD ALQDS TS OHD ALQDS STNRY P0162 T02
KMCO 150153Z 15003KT 10SM FEW100 BKN200 BKN250 26/22 A3005 RMK AO2 RAE08 TSE41 SLP174 P0000 T02560217
KMCO 150253Z 00000KT 10SM FEW015 SCT040 BKN200 25/22 A3007 RMK AO2 SLP182 60162 T02500222 53007
KMCO 150353Z 27005KT 10SM FEW040 SCT110 BKN250 26/23 A3006 RMK AO2 SLP178 T02560228
KMCO 150453Z 33003KT 10SM SCT033 SCT110 SCT250 26/23 A3007 RMK AO2 SLP181 T02560233 403440244
KMCO 150553Z 15004KT 10SM FEW035 FEW110 SCT250 25/24 A3006 RMK AO2 SLP177 60162 T02500239 10283 20244 58005
KMCO 150653Z 00000KT 10SM FEW030 FEW250 25/23 A3004 RMK AO2 SLP170 T02500233
KMCO 150753Z 22003KT 10SM FEW030 25/24 A3003 RMK AO2 SLP167 T02500239
KMCO 150853Z 19003KT 10SM CLR 25/24 A3002 RMK AO2 SLP163 T02500239 56013
KMCO 150953Z 21003KT 10SM FEW030 FEW250 25/24 A3003 RMK AO2 SLP166 T02500239
KMCO 151053Z 00000KT 10SM FEW030 FEW250 26/24 A3004 RMK AO2 SLP170 T02560239
KMCO 151153Z 00000KT 10SM FEW250 28/24 A3005 RMK AO2 SLP176 70162 T02780244 10278 20250 53012



Page loaded:  12:40 UTC  |   05:40 AM Pacific  |   06:40 AM Mountain  |   07:40 AM Central  |   08:40 AM Eastern

 

ADVISORIES

FORECASTS

FORECASTS

OBSERVATIONS

USER TOOLS

ABOUT US